createdAt,value
2022-08-26T00:01:29.198Z,12.05
2022-08-26T00:06:23.213Z,14.75
2022-08-26T00:08:49.714Z,14.70
2022-08-26T00:11:16.384Z,13.80
2022-08-26T00:13:54.146Z,13.32
2022-08-26T00:16:20.793Z,19.83
2022-08-26T00:18:47.296Z,14.25
2022-08-26T00:21:13.814Z,15.95
2022-08-26T00:23:40.523Z,15.40
2022-08-26T00:26:07.054Z,15.10
2022-08-26T00:28:35.411Z,22.52
2022-08-26T00:31:02.437Z,14.80
2022-08-26T00:33:30.004Z,17.48
2022-08-26T00:35:56.754Z,16.17
2022-08-26T00:38:23.555Z,14.02
2022-08-26T00:40:53.695Z,16.40
2022-08-26T00:43:22.746Z,18.90
2022-08-26T00:46:07.041Z,21.42
2022-08-26T00:48:34.736Z,15.73
2022-08-26T00:51:11.519Z,20.00
2022-08-26T00:53:43.248Z,13.40
2022-08-26T00:56:15.912Z,16.85
2022-08-26T00:58:45.490Z,15.27
2022-08-26T01:01:12.511Z,17.77
2022-08-26T01:03:40.191Z,19.10
2022-08-26T01:06:12.529Z,14.88
2022-08-26T01:08:40.162Z,16.65
2022-08-26T01:11:07.516Z,16.73
2022-08-26T01:13:36.873Z,14.93
2022-08-26T01:16:05.583Z,16.48
2022-08-26T01:18:33.250Z,14.25
2022-08-26T01:21:26.173Z,16.88
2022-08-26T01:23:57.466Z,11.88
2022-08-26T01:26:34.076Z,17.65
2022-08-26T01:29:03.669Z,16.70
2022-08-26T01:31:36.637Z,14.18
2022-08-26T01:34:11.010Z,14.95
2022-08-26T01:36:39.152Z,17.15
2022-08-26T01:39:07.214Z,14.77
2022-08-26T01:41:34.982Z,18.48
2022-08-26T01:44:02.116Z,15.43
2022-08-26T01:46:30.115Z,17.48
2022-08-26T01:48:58.710Z,16.02
2022-08-26T01:51:26.319Z,13.60
2022-08-26T01:53:52.821Z,15.27
2022-08-26T01:56:22.061Z,15.23
2022-08-26T01:58:54.564Z,16.42
2022-08-26T02:01:22.867Z,16.13
2022-08-26T02:04:08.899Z,13.60
2022-08-26T02:06:37.852Z,16.52
2022-08-26T02:09:07.844Z,14.82
2022-08-26T02:11:36.841Z,16.60
2022-08-26T02:14:21.875Z,12.15
2022-08-26T02:16:50.895Z,17.73
2022-08-26T02:19:30.470Z,14.52
2022-08-26T02:21:59.783Z,14.02
2022-08-26T02:24:29.727Z,14.63
2022-08-26T02:26:57.640Z,17.05
2022-08-26T02:29:27.967Z,15.75
2022-08-26T02:31:57.410Z,13.63
2022-08-26T02:34:31.400Z,13.75
2022-08-26T02:36:59.993Z,14.90
2022-08-26T02:39:26.881Z,12.30
2022-08-26T02:41:53.558Z,18.35
2022-08-26T02:44:20.724Z,17.35
2022-08-26T02:46:47.428Z,18.88
2022-08-26T02:49:16.220Z,13.88
2022-08-26T02:51:43.560Z,18.48
2022-08-26T02:54:10.118Z,15.85
2022-08-26T02:56:37.438Z,17.80
2022-08-26T02:59:04.198Z,13.52
2022-08-26T03:01:33.300Z,13.77
2022-08-26T03:04:00.702Z,17.38
2022-08-26T03:06:27.207Z,17.13
2022-08-26T03:08:53.731Z,15.43
2022-08-26T03:11:20.404Z,16.30
2022-08-26T03:13:49.056Z,16.80
2022-08-26T03:16:16.746Z,20.25
2022-08-26T03:18:44.002Z,16.88
2022-08-26T03:21:18.997Z,18.63
2022-08-26T03:23:47.141Z,18.92
2022-08-26T03:26:15.110Z,18.40
2022-08-26T03:29:01.487Z,18.95
2022-08-26T03:31:29.173Z,17.65
2022-08-26T03:33:59.581Z,17.42
2022-08-26T03:36:26.890Z,16.90
2022-08-26T03:38:53.581Z,14.23
2022-08-26T03:41:21.351Z,17.75
2022-08-26T03:43:50.639Z,12.82
2022-08-26T03:46:18.393Z,18.67
2022-08-26T03:48:45.704Z,17.08
2022-08-26T03:51:18.450Z,19.80
2022-08-26T03:53:46.031Z,15.02
2022-08-26T03:56:12.801Z,16.52
2022-08-26T03:58:39.443Z,21.05
2022-08-26T04:01:09.835Z,15.82
2022-08-26T04:03:54.911Z,18.35
2022-08-26T04:06:21.504Z,17.65
2022-08-26T04:08:48.285Z,17.55
2022-08-26T04:11:19.848Z,20.27
2022-08-26T04:13:48.032Z,17.73
2022-08-26T04:16:17.621Z,14.68
2022-08-26T04:18:46.824Z,14.15
2022-08-26T04:21:15.160Z,18.65
2022-08-26T04:23:47.491Z,15.70
2022-08-26T04:26:15.624Z,17.95
2022-08-26T04:28:42.120Z,17.17
2022-08-26T04:31:14.698Z,19.08
2022-08-26T04:33:43.237Z,14.68
2022-08-26T04:36:10.468Z,16.05
2022-08-26T04:38:37.078Z,23.92
2022-08-26T04:41:05.573Z,17.25
2022-08-26T04:43:42.176Z,21.13
2022-08-26T04:46:09.663Z,16.48
2022-08-26T04:48:39.493Z,19.95
2022-08-26T04:51:06.327Z,16.33
2022-08-26T04:53:32.820Z,17.58
2022-08-26T04:56:00.454Z,15.88
2022-08-26T04:58:27.521Z,13.52
2022-08-26T05:01:00.806Z,16.52
2022-08-26T05:03:30.434Z,16.48
2022-08-26T05:05:58.244Z,19.10
2022-08-26T05:08:24.971Z,17.85
2022-08-26T05:10:56.775Z,15.52
2022-08-26T05:13:26.144Z,19.35
2022-08-26T05:15:53.266Z,16.38
2022-08-26T05:18:22.832Z,16.55
2022-08-26T05:20:51.820Z,18.65
2022-08-26T05:23:22.603Z,18.10
2022-08-26T05:25:50.706Z,14.77
2022-08-26T05:28:18.840Z,17.42
2022-08-26T05:30:49.147Z,13.68
2022-08-26T05:33:16.717Z,13.77
2022-08-26T05:35:44.320Z,13.75
2022-08-26T05:38:17.561Z,14.63
2022-08-26T05:40:52.916Z,14.63
2022-08-26T05:43:21.265Z,13.15
2022-08-26T05:45:49.338Z,14.60
2022-08-26T05:48:18.579Z,15.25
2022-08-26T05:50:50.642Z,15.40
2022-08-26T05:53:19.133Z,11.20
2022-08-26T05:55:52.401Z,10.63
2022-08-26T05:58:20.885Z,12.57
2022-08-26T06:01:00.725Z,14.85
2022-08-26T06:03:27.615Z,14.90
2022-08-26T06:05:54.186Z,12.82
2022-08-26T06:08:21.300Z,11.48
2022-08-26T06:10:53.675Z,19.02
2022-08-26T06:13:26.783Z,15.70
2022-08-26T06:15:54.469Z,15.90
2022-08-26T06:18:27.239Z,15.98
2022-08-26T06:20:57.704Z,12.48
2022-08-26T06:23:45.625Z,17.40
2022-08-26T06:26:12.903Z,12.65
2022-08-26T06:28:39.452Z,18.02
2022-08-26T06:31:06.283Z,17.08
2022-08-26T06:33:32.969Z,14.85
2022-08-26T06:36:01.318Z,19.17
2022-08-26T06:38:28.383Z,14.35
2022-08-26T06:40:55.268Z,15.15
2022-08-26T06:43:24.347Z,15.98
2022-08-26T06:45:51.160Z,16.05
2022-08-26T06:48:19.692Z,18.55
2022-08-26T06:50:46.619Z,14.68
2022-08-26T06:53:17.048Z,14.60
2022-08-26T06:55:46.095Z,14.55
2022-08-26T06:58:13.797Z,14.93
2022-08-26T07:00:47.270Z,14.32
2022-08-26T07:03:14.299Z,14.93
2022-08-26T07:05:40.852Z,13.25
2022-08-26T07:08:07.517Z,12.35
2022-08-26T07:10:35.604Z,13.15
2022-08-26T07:13:02.660Z,14.48
2022-08-26T07:15:31.202Z,12.30
2022-08-26T07:17:58.164Z,17.88
2022-08-26T07:20:25.417Z,19.80
2022-08-26T07:22:51.980Z,15.80
2022-08-26T07:25:19.253Z,14.23
2022-08-26T07:27:46.791Z,15.98
2022-08-26T07:30:20.651Z,12.77
2022-08-26T07:32:47.435Z,12.57
2022-08-26T07:35:14.742Z,17.92
2022-08-26T07:37:42.288Z,15.95
2022-08-26T07:40:09.439Z,13.07
2022-08-26T07:42:35.995Z,12.63
2022-08-26T07:45:02.547Z,20.42
2022-08-26T07:47:29.233Z,13.85
2022-08-26T07:49:56.359Z,13.65
2022-08-26T07:52:26.683Z,11.45
2022-08-26T07:54:53.888Z,15.70
2022-08-26T07:57:20.739Z,14.65
2022-08-26T07:59:47.489Z,14.27
2022-08-26T08:02:14.019Z,13.82
2022-08-26T08:04:40.549Z,13.48
2022-08-26T08:07:07.552Z,15.80
2022-08-26T08:09:38.260Z,15.40
2022-08-26T08:12:07.512Z,11.98
2022-08-26T08:14:36.441Z,13.80
2022-08-26T08:17:04.343Z,19.55
2022-08-26T08:19:36.717Z,12.95
2022-08-26T08:22:11.351Z,12.13
2022-08-26T08:24:44.582Z,15.07
2022-08-26T08:27:11.094Z,15.38
2022-08-26T08:29:38.573Z,14.30
2022-08-26T08:32:05.412Z,10.27
2022-08-26T08:34:32.371Z,13.52
2022-08-26T08:36:59.514Z,16.23
2022-08-26T08:39:26.720Z,14.15
2022-08-26T08:42:00.740Z,11.05
2022-08-26T08:44:29.040Z,14.90
2022-08-26T08:46:59.297Z,15.88
2022-08-26T08:49:26.157Z,11.95
2022-08-26T08:52:16.539Z,15.65
2022-08-26T08:54:43.148Z,14.85
2022-08-26T08:57:16.732Z,12.23
2022-08-26T09:00:01.584Z,13.48
2022-08-26T09:02:34.669Z,15.30
2022-08-26T09:05:29.884Z,12.18
2022-08-26T09:08:01.679Z,13.25
2022-08-26T09:10:35.624Z,15.43
2022-08-26T09:13:09.677Z,13.88
2022-08-26T09:15:56.985Z,15.60
2022-08-26T09:18:54.417Z,10.18
2022-08-26T09:21:23.569Z,11.02
2022-08-26T09:23:53.171Z,18.15
2022-08-26T09:26:25.930Z,10.40
2022-08-26T09:29:01.263Z,8.80
2022-08-26T09:31:30.864Z,11.95
2022-08-26T09:34:07.251Z,14.68
2022-08-26T09:36:41.058Z,14.15
2022-08-26T09:39:37.732Z,11.98
2022-08-26T09:42:10.814Z,8.15
2022-08-26T09:44:54.818Z,13.20
2022-08-26T09:47:26.761Z,12.63
2022-08-26T09:50:12.471Z,13.63
2022-08-26T09:52:40.376Z,15.57
2022-08-26T09:55:12.426Z,16.75
2022-08-26T09:57:48.918Z,18.50
2022-08-26T10:00:27.991Z,17.70
2022-08-26T10:02:57.956Z,12.40
2022-08-26T10:05:43.919Z,16.23
2022-08-26T10:08:26.412Z,16.38
2022-08-26T10:10:53.650Z,18.35
2022-08-26T10:13:42.226Z,10.70
2022-08-26T10:16:22.368Z,12.07
2022-08-26T10:19:00.042Z,12.18
2022-08-26T10:21:42.691Z,13.57
2022-08-26T10:24:11.526Z,13.30
2022-08-26T10:26:58.227Z,12.95
2022-08-26T10:29:34.154Z,16.58
2022-08-26T10:32:04.786Z,20.67
2022-08-26T10:34:32.563Z,17.02
2022-08-26T10:37:16.434Z,13.80
2022-08-26T10:40:03.698Z,15.93
2022-08-26T10:42:30.909Z,13.32
2022-08-26T10:45:04.840Z,14.30
2022-08-26T10:47:41.930Z,10.88
2022-08-26T10:50:08.444Z,18.60
2022-08-26T10:53:02.477Z,17.42
2022-08-26T10:55:57.233Z,19.25
2022-08-26T10:58:45.643Z,18.83
2022-08-26T11:01:50.872Z,16.77
2022-08-26T11:04:37.445Z,15.23
2022-08-26T11:07:32.320Z,12.32
2022-08-26T11:10:01.044Z,17.98
2022-08-26T11:12:37.331Z,16.90
2022-08-26T11:15:10.729Z,12.70
2022-08-26T11:17:48.851Z,15.48
2022-08-26T11:20:42.341Z,19.10
2022-08-26T11:23:24.010Z,11.07
2022-08-26T11:25:57.032Z,11.32
2022-08-26T11:28:46.082Z,14.85
2022-08-26T11:31:25.614Z,14.55
2022-08-26T11:34:07.149Z,11.88
2022-08-26T11:36:47.646Z,16.98
2022-08-26T11:39:36.733Z,15.45
2022-08-26T11:42:20.251Z,13.65
2022-08-26T11:44:49.248Z,16.33
2022-08-26T11:47:17.898Z,17.30
2022-08-26T11:49:45.595Z,21.35
2022-08-26T11:52:17.421Z,13.50
2022-08-26T11:55:20.156Z,12.57
2022-08-26T11:57:53.452Z,11.35
2022-08-26T12:00:26.485Z,20.60
2022-08-26T12:02:53.472Z,12.95
2022-08-26T12:05:31.125Z,14.00
2022-08-26T12:08:01.331Z,12.25
2022-08-26T12:10:31.148Z,11.32
2022-08-26T12:13:00.467Z,13.27
2022-08-26T12:15:29.604Z,13.65
2022-08-26T12:17:56.898Z,12.85
2022-08-26T12:20:48.085Z,15.23
2022-08-26T12:23:48.029Z,14.98
2022-08-26T12:26:25.496Z,18.92
2022-08-26T12:28:53.842Z,15.60
2022-08-26T12:31:21.722Z,22.17
2022-08-26T12:33:48.611Z,23.23
2022-08-26T12:36:21.191Z,25.73
2022-08-26T12:38:48.643Z,21.15
2022-08-26T12:41:39.399Z,19.40
2022-08-26T12:44:06.111Z,11.63
2022-08-26T12:46:32.658Z,11.27
2022-08-26T12:49:01.667Z,7.68
2022-08-26T12:51:31.075Z,10.25
2022-08-26T12:53:58.296Z,7.72
2022-08-26T12:56:51.977Z,10.73
2022-08-26T12:59:25.659Z,8.95
2022-08-26T13:01:53.442Z,9.30
2022-08-26T13:04:41.820Z,8.63
2022-08-26T13:07:23.046Z,8.13
2022-08-26T13:09:52.218Z,7.80
2022-08-26T13:12:29.374Z,12.70
2022-08-26T13:14:57.520Z,8.13
2022-08-26T13:17:24.388Z,9.88
2022-08-26T13:19:50.934Z,11.20
2022-08-26T13:22:22.863Z,9.60
2022-08-26T13:24:49.606Z,9.85
2022-08-26T13:27:17.827Z,9.40
2022-08-26T13:29:44.631Z,10.18
2022-08-26T13:32:12.422Z,11.98
2022-08-26T13:34:39.485Z,11.77
2022-08-26T13:37:06.366Z,9.15
2022-08-26T13:39:33.129Z,6.55
2022-08-26T13:42:00.315Z,6.13
2022-08-26T13:44:27.368Z,4.03
2022-08-26T13:46:53.990Z,5.00
2022-08-26T13:49:20.530Z,6.05
2022-08-26T13:51:47.096Z,7.88
2022-08-26T13:54:13.667Z,3.92
2022-08-26T13:56:40.343Z,3.70
2022-08-26T13:59:10.232Z,4.55
2022-08-26T14:01:39.638Z,3.70
2022-08-26T14:04:06.298Z,3.97
2022-08-26T14:06:32.848Z,8.63
2022-08-26T14:09:00.309Z,4.18
2022-08-26T14:11:27.690Z,5.72
2022-08-26T14:13:54.218Z,3.40
2022-08-26T14:16:26.624Z,5.97
2022-08-26T14:18:53.454Z,12.97
2022-08-26T14:21:20.533Z,17.30
2022-08-26T14:23:47.123Z,18.33
2022-08-26T14:26:19.081Z,17.55
2022-08-26T14:28:57.941Z,16.80
2022-08-26T14:31:26.721Z,17.38
2022-08-26T14:33:53.435Z,15.48
2022-08-26T14:36:28.931Z,17.38
2022-08-26T14:38:56.542Z,15.75
2022-08-26T14:41:25.216Z,10.93
2022-08-26T14:43:58.005Z,10.68
2022-08-26T14:46:28.819Z,11.63
2022-08-26T14:49:01.560Z,10.63
2022-08-26T14:51:28.808Z,15.43
2022-08-26T14:54:13.463Z,12.30
2022-08-26T14:56:53.930Z,12.75
2022-08-26T14:59:22.779Z,11.10
2022-08-26T15:01:49.485Z,13.60
2022-08-26T15:04:16.508Z,16.67
2022-08-26T15:06:43.154Z,16.15
2022-08-26T15:09:10.064Z,8.70
2022-08-26T15:11:36.674Z,11.27
2022-08-26T15:14:03.231Z,7.38
2022-08-26T15:16:29.991Z,8.90
2022-08-26T15:18:56.781Z,7.20
2022-08-26T15:21:24.122Z,8.65
2022-08-26T15:23:52.095Z,9.20
2022-08-26T15:26:19.847Z,9.68
2022-08-26T15:28:46.543Z,10.05
2022-08-26T15:31:13.192Z,10.77
2022-08-26T15:33:40.316Z,8.95
2022-08-26T15:36:08.044Z,8.73
2022-08-26T15:38:37.469Z,10.65
2022-08-26T15:41:05.294Z,9.27
2022-08-26T15:43:32.053Z,9.02
2022-08-26T15:45:58.574Z,8.85
2022-08-26T15:48:25.427Z,8.90
2022-08-26T15:50:57.233Z,9.55
2022-08-26T15:53:24.206Z,8.38
2022-08-26T15:55:54.160Z,8.80
2022-08-26T15:58:21.742Z,10.02
2022-08-26T16:00:48.237Z,9.68
2022-08-26T16:03:14.743Z,12.00
2022-08-26T16:05:43.612Z,11.48
2022-08-26T16:08:10.846Z,13.57
2022-08-26T16:10:39.555Z,14.48
2022-08-26T16:13:06.220Z,13.55
2022-08-26T16:15:33.689Z,11.80
2022-08-26T16:18:01.882Z,11.48
2022-08-26T16:20:29.186Z,11.95
2022-08-26T16:22:56.240Z,10.90
2022-08-26T16:25:22.844Z,12.98
2022-08-26T16:27:49.504Z,9.40
2022-08-26T16:30:16.779Z,9.57
2022-08-26T16:32:43.315Z,10.65
2022-08-26T16:35:11.653Z,8.32
2022-08-26T16:37:39.410Z,9.15
2022-08-26T16:40:07.366Z,9.45
2022-08-26T16:42:34.087Z,8.88
2022-08-26T16:45:00.616Z,9.65
2022-08-26T16:47:27.292Z,9.65
2022-08-26T16:49:53.790Z,9.40
2022-08-26T16:52:20.368Z,43.92
2022-08-26T16:54:47.424Z,12.68
2022-08-26T16:57:14.082Z,7.00
2022-08-26T16:59:41.456Z,8.90
2022-08-26T17:02:08.261Z,9.23
2022-08-26T17:04:34.768Z,9.73
2022-08-26T17:07:01.258Z,8.25
2022-08-26T17:09:27.832Z,12.40
2022-08-26T17:11:54.499Z,7.50
2022-08-26T17:14:21.035Z,6.75
2022-08-26T17:16:51.104Z,6.80
2022-08-26T17:19:19.188Z,7.47
2022-08-26T17:21:46.891Z,6.43
2022-08-26T17:24:14.005Z,8.07
2022-08-26T17:26:44.142Z,7.28
2022-08-26T17:29:14.767Z,7.13
2022-08-26T17:31:41.385Z,7.28
2022-08-26T17:34:10.108Z,6.57
2022-08-26T17:36:36.653Z,10.05
2022-08-26T17:39:03.599Z,7.30
2022-08-26T17:41:30.433Z,8.10
2022-08-26T17:43:57.112Z,7.20
2022-08-26T17:46:24.595Z,7.35
2022-08-26T17:48:51.291Z,10.07
2022-08-26T17:51:19.232Z,8.18
2022-08-26T17:53:46.635Z,7.15
2022-08-26T17:56:14.734Z,10.57
2022-08-26T17:58:51.470Z,7.55
2022-08-26T18:01:18.706Z,8.32
2022-08-26T18:03:48.226Z,6.72
2022-08-26T18:06:15.038Z,5.53
2022-08-26T18:08:41.529Z,7.15
2022-08-26T18:11:18.250Z,7.80
2022-08-26T18:13:47.147Z,5.90
2022-08-26T18:16:15.210Z,6.85
2022-08-26T18:18:42.200Z,8.52
2022-08-26T18:21:17.051Z,8.73
2022-08-26T18:23:45.075Z,6.97
2022-08-26T18:26:31.323Z,9.00
2022-08-26T18:28:58.560Z,7.68
2022-08-26T18:31:25.233Z,7.50
2022-08-26T18:33:52.411Z,9.68
2022-08-26T18:36:24.392Z,7.78
2022-08-26T18:38:51.619Z,7.38
2022-08-26T18:41:20.895Z,8.60
2022-08-26T18:43:50.264Z,10.02
2022-08-26T18:46:17.749Z,8.00
2022-08-26T18:48:44.474Z,5.68
2022-08-26T18:51:19.153Z,7.47
2022-08-26T18:53:45.691Z,6.88
2022-08-26T18:56:16.624Z,8.48
2022-08-26T18:58:45.469Z,10.13
2022-08-26T19:01:13.082Z,7.20
2022-08-26T19:03:39.788Z,8.93
2022-08-26T19:06:06.580Z,7.03
2022-08-26T19:08:33.066Z,7.82
2022-08-26T19:11:00.920Z,9.75
2022-08-26T19:13:27.407Z,8.57
2022-08-26T19:15:54.064Z,9.27
2022-08-26T19:18:20.609Z,10.32
2022-08-26T19:20:47.880Z,9.05
2022-08-26T19:23:30.775Z,6.95
2022-08-26T19:25:57.865Z,6.47
2022-08-26T19:28:24.697Z,11.32
2022-08-26T19:30:53.556Z,8.73
2022-08-26T19:33:20.178Z,8.95
2022-08-26T19:35:46.842Z,8.27
2022-08-26T19:38:13.828Z,8.25
2022-08-26T19:40:40.331Z,9.48
2022-08-26T19:43:07.075Z,9.32
2022-08-26T19:45:34.399Z,10.80
2022-08-26T19:48:01.027Z,8.85
2022-08-26T19:50:30.616Z,10.90
2022-08-26T19:52:57.275Z,7.22
2022-08-26T19:55:24.389Z,8.75
2022-08-26T19:57:52.248Z,9.50
2022-08-26T20:00:23.723Z,11.13
2022-08-26T20:02:51.005Z,9.43
2022-08-26T20:05:20.634Z,10.75
2022-08-26T20:07:47.642Z,11.00
2022-08-26T20:10:15.681Z,7.75
2022-08-26T20:12:42.868Z,8.75
2022-08-26T20:15:11.327Z,11.10
2022-08-26T20:17:38.216Z,9.00
2022-08-26T20:20:29.713Z,8.68
2022-08-26T20:23:00.490Z,10.30
2022-08-26T20:25:27.005Z,10.35
2022-08-26T20:27:53.494Z,10.32
2022-08-26T20:30:20.054Z,8.68
2022-08-26T20:32:46.603Z,8.60
2022-08-26T20:35:13.714Z,10.40
2022-08-26T20:37:41.157Z,9.57
2022-08-26T20:40:09.427Z,9.85
2022-08-26T20:42:36.267Z,11.18
2022-08-26T20:45:03.201Z,8.70
2022-08-26T20:47:29.835Z,8.43
2022-08-26T20:49:56.456Z,10.07
2022-08-26T20:52:23.099Z,9.38
2022-08-26T20:54:49.617Z,8.63
2022-08-26T20:57:16.123Z,7.13
2022-08-26T20:59:43.462Z,8.38
2022-08-26T21:02:10.049Z,8.50
2022-08-26T21:04:36.583Z,8.93
2022-08-26T21:07:03.196Z,8.27
2022-08-26T21:09:29.765Z,9.32
2022-08-26T21:11:57.247Z,10.63
2022-08-26T21:14:25.905Z,9.70
2022-08-26T21:16:52.821Z,6.70
2022-08-26T21:19:19.642Z,9.07
2022-08-26T21:21:47.613Z,11.00
2022-08-26T21:24:14.255Z,12.00
2022-08-26T21:26:40.880Z,7.75
2022-08-26T21:29:09.546Z,11.73
2022-08-26T21:31:36.657Z,9.30
2022-08-26T21:34:03.302Z,11.07
2022-08-26T21:36:29.812Z,13.27
2022-08-26T21:38:57.150Z,12.85
2022-08-26T21:41:23.760Z,9.63
2022-08-26T21:43:53.564Z,10.15
2022-08-26T21:46:22.104Z,9.73
2022-08-26T21:48:51.943Z,11.57
2022-08-26T21:51:20.790Z,8.13
2022-08-26T21:53:47.459Z,9.10
2022-08-26T21:56:18.044Z,10.32
2022-08-26T21:58:45.128Z,13.93
2022-08-26T22:01:14.325Z,10.73
2022-08-26T22:03:47.402Z,11.77
2022-08-26T22:08:41.486Z,10.65
2022-08-26T22:11:09.445Z,8.60
2022-08-26T22:13:37.601Z,7.93
2022-08-26T22:16:04.914Z,9.30
2022-08-26T22:18:31.707Z,9.70
2022-08-26T22:21:01.305Z,10.65
2022-08-26T22:23:28.217Z,6.65
2022-08-26T22:25:55.787Z,10.38
2022-08-26T22:28:22.930Z,9.43
2022-08-26T22:30:49.542Z,10.85
2022-08-26T22:33:17.315Z,7.80
2022-08-26T22:35:48.247Z,9.95
2022-08-26T22:38:15.015Z,9.77
2022-08-26T22:40:50.462Z,9.05
2022-08-26T22:43:18.100Z,9.02
2022-08-26T22:45:46.298Z,8.57
2022-08-26T22:48:15.523Z,10.82
2022-08-26T22:50:43.779Z,9.68
2022-08-26T22:53:10.547Z,7.03
2022-08-26T22:55:37.065Z,11.65
2022-08-26T22:58:03.782Z,10.57
2022-08-26T23:00:32.306Z,10.77
2022-08-26T23:02:59.943Z,10.77
2022-08-26T23:05:26.727Z,9.18
2022-08-26T23:07:53.947Z,9.23
2022-08-26T23:10:20.492Z,10.73
2022-08-26T23:12:46.995Z,8.85
2022-08-26T23:15:13.586Z,7.63
2022-08-26T23:17:40.181Z,10.98
2022-08-26T23:20:09.737Z,9.02
2022-08-26T23:22:37.035Z,9.15
2022-08-26T23:25:07.781Z,7.32
2022-08-26T23:27:40.379Z,7.22
2022-08-26T23:30:10.980Z,10.75
2022-08-26T23:32:37.512Z,7.50
2022-08-26T23:35:05.633Z,11.10
2022-08-26T23:37:35.922Z,7.80
2022-08-26T23:40:05.029Z,7.47
2022-08-26T23:42:31.603Z,8.18
2022-08-26T23:44:58.111Z,7.90
2022-08-26T23:47:25.094Z,7.30
2022-08-26T23:49:51.601Z,5.78
2022-08-26T23:52:36.631Z,7.28
2022-08-26T23:55:03.469Z,9.85
2022-08-26T23:57:29.963Z,9.18
2022-08-26T23:59:56.483Z,7.90
